Youngstown, Ohio
Current Conditions -  °F | °C
As of 10:51 PM on Monday 22 Dec 2014 (Local Time) from KYNG Reporting Station
Overcast Overcast  
Wind Chill: 27°   Ceiling: 10000
Heat Index: 35°   Visibility: 9mi
Dew Point: 29°   Wind: 10mph
Humidity: 78%   Direction: 110°ESE
Pressure: 29.93"   Gusts: NA
Location:  41.1°N, 80.65°W
Report Text: KYNG 230351Z 11009KT 9SM BKN100 OVC110 02/M02 A2993 RMK AO2 SLP145 T00171017
Loading
Personal Weather Stations






























Interactive Weather Map New forecast layout! Learn more

10-Day Weather Forecast

Advertisements
Track Severe Weather on mobile